Terminal Aerodrome Forecast
Issued by NWS

Home | Current Version | Previous Version | Text Only | Print | Product List | Glossary On
Versions: 1 2 3 4 5 6 7 8 9 10 11 12 13 14 15 16 17 18 19 20 21 22 23 24 25 26 27
000
FTUS41 KBUF 222300
TAFIAG
TAF
KIAG 222339Z 2300/2324 06005KT P6SM SCT060
     FM230300 05004KT P6SM BKN035
     FM230700 05005KT 2SM BR BKN025
     FM231000 05005KT 2SM BR BKN006
     FM231400 04007KT P6SM BKN025
     FM231700 04009KT P6SM BKN035
     FM232200 06010KT P6SM SCT040=

USA.gov is the U.S. government's official web portal to all federal, state and local government web resources and services.